createdAt,value
2019-06-07T00:03:30.406Z,13.60
2019-06-07T00:08:56.059Z,13.40
2019-06-07T00:14:01.084Z,10.60
2019-06-07T00:19:07.203Z,11.90
2019-06-07T00:24:14.360Z,11.57
2019-06-07T00:29:21.681Z,14.60
2019-06-07T00:34:25.798Z,16.57
2019-06-07T00:39:30.758Z,13.80
2019-06-07T00:44:35.733Z,18.53
2019-06-07T00:49:41.742Z,17.47
2019-06-07T00:54:47.012Z,22.17
2019-06-07T00:59:52.079Z,17.93
2019-06-07T01:04:57.099Z,19.33
2019-06-07T01:10:02.158Z,18.80
2019-06-07T01:15:08.862Z,22.67
2019-06-07T01:20:14.241Z,20.57
2019-06-07T01:25:22.714Z,18.40
2019-06-07T01:30:26.843Z,21.07
2019-06-07T01:35:32.015Z,16.57
2019-06-07T01:40:36.963Z,18.10
2019-06-07T01:45:41.995Z,20.73
2019-06-07T01:50:46.942Z,19.77
2019-06-07T01:55:51.990Z,18.40
2019-06-07T02:00:56.943Z,18.27
2019-06-07T02:06:02.027Z,17.40
2019-06-07T02:11:07.150Z,15.43
2019-06-07T02:16:12.232Z,17.43
2019-06-07T02:21:17.283Z,21.57
2019-06-07T02:26:22.948Z,21.53
2019-06-07T02:31:36.244Z,18.37
2019-06-07T02:36:41.338Z,20.00
2019-06-07T02:41:42.339Z,22.17
2019-06-07T02:46:50.025Z,18.73
2019-06-07T02:51:54.885Z,17.30
2019-06-07T02:56:59.986Z,19.23
2019-06-07T03:02:05.098Z,27.70
2019-06-07T03:07:12.233Z,21.27
2019-06-07T03:12:20.403Z,22.87
2019-06-07T03:17:35.325Z,19.73
2019-06-07T03:22:42.051Z,20.00
2019-06-07T03:27:50.186Z,17.93
2019-06-07T03:32:55.223Z,20.20
2019-06-07T03:38:00.183Z,18.20
2019-06-07T03:43:05.286Z,18.87
2019-06-07T03:48:10.311Z,17.47
2019-06-07T03:53:15.286Z,18.90
2019-06-07T03:58:48.290Z,18.33
2019-06-07T04:03:36.081Z,20.57
2019-06-07T04:08:38.782Z,19.10
2019-06-07T04:13:42.633Z,22.17
2019-06-07T04:18:47.855Z,17.30
2019-06-07T04:23:52.907Z,23.10
2019-06-07T04:34:04.646Z,20.00
2019-06-07T04:39:09.630Z,21.27
2019-06-07T04:44:17.298Z,20.17
2019-06-07T04:49:25.164Z,19.67
2019-06-07T04:54:31.476Z,21.80
2019-06-07T05:04:44.365Z,20.00
2019-06-07T05:09:49.370Z,19.53
2019-06-07T05:14:54.326Z,18.27
2019-06-07T05:19:59.306Z,22.37
2019-06-07T05:25:05.122Z,18.67
2019-06-07T05:30:36.587Z,16.03
2019-06-07T05:35:17.599Z,16.47
2019-06-07T05:40:32.992Z,16.10
2019-06-07T05:45:42.328Z,15.70
2019-06-07T05:50:56.045Z,14.50
2019-06-07T05:55:52.642Z,15.73
2019-06-07T06:01:41.117Z,14.57
2019-06-07T06:06:04.651Z,15.70
2019-06-07T06:11:09.699Z,16.37
2019-06-07T06:16:14.745Z,13.13
2019-06-07T06:21:20.892Z,14.47
2019-06-07T06:26:25.888Z,21.17
2019-06-07T06:31:30.901Z,17.87
2019-06-07T06:36:37.365Z,19.43
2019-06-07T06:41:54.448Z,21.53
2019-06-07T06:46:57.270Z,19.77
2019-06-07T06:51:55.794Z,20.67
2019-06-07T06:57:18.539Z,14.30
2019-06-07T07:02:07.441Z,16.60
2019-06-07T07:07:12.542Z,19.00
2019-06-07T07:12:17.598Z,17.77
2019-06-07T07:17:47.057Z,16.00
2019-06-07T07:22:29.289Z,13.57
2019-06-07T07:27:34.262Z,16.63
2019-06-07T07:32:39.242Z,21.53
2019-06-07T07:37:46.166Z,14.80
2019-06-07T07:42:54.570Z,17.40
2019-06-07T07:48:14.174Z,22.10
2019-06-07T07:53:04.544Z,14.77
2019-06-07T07:58:09.627Z,14.30
2019-06-07T08:03:14.578Z,11.87
2019-06-07T08:08:19.770Z,16.63
2019-06-07T08:13:27.775Z,12.67
2019-06-07T08:18:33.834Z,11.20
2019-06-07T08:23:38.886Z,16.87
2019-06-07T08:28:44.929Z,10.30
2019-06-07T08:33:50.208Z,12.77
2019-06-07T08:39:02.999Z,13.97
2019-06-07T08:44:21.805Z,13.47
2019-06-07T08:49:08.481Z,9.67
2019-06-07T08:54:22.331Z,11.67
2019-06-07T08:59:20.198Z,9.80
2019-06-07T09:04:25.145Z,8.20
2019-06-07T09:09:30.179Z,10.00
2019-06-07T09:14:35.235Z,10.40
2019-06-07T09:19:41.418Z,11.13
2019-06-07T09:24:46.542Z,11.25
2019-06-07T09:29:51.714Z,9.73
2019-06-07T09:35:01.070Z,15.25
2019-06-07T09:51:33.807Z,10.10
2019-06-07T09:56:38.929Z,9.05
2019-06-07T10:01:43.971Z,10.10
2019-06-07T10:11:44.681Z,8.18
2019-06-07T10:16:49.937Z,8.20
2019-06-07T10:21:55.481Z,9.28
2019-06-07T10:27:01.705Z,7.03
2019-06-07T10:32:06.917Z,6.28
2019-06-07T10:37:15.674Z,7.22
2019-06-07T10:42:18.816Z,5.87
2019-06-07T10:47:23.784Z,5.72
2019-06-07T10:52:28.890Z,5.45
2019-06-07T10:57:34.002Z,5.95
2019-06-07T11:02:39.197Z,5.92
2019-06-07T11:07:44.182Z,4.53
2019-06-07T11:12:49.206Z,4.95
2019-06-07T11:17:54.071Z,4.90
2019-06-07T11:22:59.100Z,4.80
2019-06-07T11:28:04.258Z,4.72
2019-06-07T11:33:11.885Z,4.65
2019-06-07T11:38:15.712Z,3.85
2019-06-07T11:43:20.751Z,3.98
2019-06-07T11:48:25.719Z,4.35
2019-06-07T11:53:30.818Z,4.70
2019-06-07T11:58:35.726Z,4.28
2019-06-07T12:03:40.711Z,5.15
2019-06-07T12:08:45.706Z,4.20
2019-06-07T12:13:50.795Z,9.00
2019-06-07T12:18:55.732Z,4.78
2019-06-07T12:24:00.727Z,4.95
2019-06-07T12:29:05.783Z,7.97
2019-06-07T12:34:11.246Z,8.10
2019-06-07T12:39:16.422Z,3.85
2019-06-07T12:44:22.718Z,6.67
2019-06-07T12:49:27.963Z,4.92
2019-06-07T12:54:32.931Z,5.65
2019-06-07T12:59:37.894Z,5.35
2019-06-07T13:04:42.866Z,5.53
2019-06-07T13:09:47.837Z,8.08
2019-06-07T13:14:52.908Z,5.42
2019-06-07T13:19:57.929Z,4.80
2019-06-07T13:25:03.445Z,7.45
2019-06-07T13:30:10.949Z,4.83
2019-06-07T13:35:18.317Z,4.65
2019-06-07T13:40:23.669Z,5.60
2019-06-07T13:45:29.707Z,5.92
2019-06-07T13:50:34.757Z,5.70
2019-06-07T13:55:39.758Z,4.83
2019-06-07T14:00:44.831Z,5.17
2019-06-07T14:05:49.794Z,6.03
2019-06-07T14:10:54.688Z,5.50
2019-06-07T14:15:59.636Z,6.25
2019-06-07T14:21:04.706Z,4.45
2019-06-07T14:26:09.691Z,5.22
2019-06-07T14:31:14.729Z,10.93
2019-06-07T14:36:19.765Z,7.60
2019-06-07T14:41:25.179Z,6.30
2019-06-07T14:46:32.154Z,5.90
2019-06-07T14:51:38.303Z,14.70
2019-06-07T14:56:43.467Z,8.43
2019-06-07T15:01:48.474Z,5.90
2019-06-07T15:06:53.367Z,4.83
2019-06-07T15:11:58.339Z,4.70
2019-06-07T15:17:03.371Z,5.12
2019-06-07T15:22:08.334Z,7.65
2019-06-07T15:27:13.346Z,6.62
2019-06-07T15:32:18.242Z,8.13
2019-06-07T15:37:23.251Z,5.97
2019-06-07T15:42:45.123Z,4.83
2019-06-07T15:47:35.875Z,5.28
2019-06-07T15:52:43.220Z,6.80
2019-06-07T15:57:47.628Z,6.10
2019-06-07T16:02:52.662Z,8.10
2019-06-07T16:07:57.550Z,6.12
2019-06-07T16:13:02.601Z,6.08
2019-06-07T16:18:07.865Z,4.50
2019-06-07T16:23:12.987Z,4.25
2019-06-07T16:28:17.927Z,7.10
2019-06-07T16:33:22.867Z,4.50
2019-06-07T16:38:27.893Z,5.03
2019-06-07T16:43:32.912Z,6.87
2019-06-07T16:48:38.712Z,6.58
2019-06-07T16:53:44.545Z,12.55
2019-06-07T16:58:49.622Z,4.92
2019-06-07T17:03:54.664Z,6.58
2019-06-07T17:08:59.695Z,7.95
2019-06-07T17:14:05.106Z,4.30
2019-06-07T17:19:10.541Z,5.47
2019-06-07T17:24:15.474Z,6.80
2019-06-07T17:29:20.518Z,4.42
2019-06-07T17:34:25.526Z,6.25
2019-06-07T17:39:30.386Z,7.95
2019-06-07T17:44:35.354Z,5.40
2019-06-07T17:49:41.641Z,24.27
2019-06-07T17:54:47.933Z,17.55
2019-06-07T17:59:53.228Z,10.70
2019-06-07T18:04:58.306Z,6.65
2019-06-07T18:10:05.265Z,15.58
2019-06-07T18:15:11.683Z,12.85
2019-06-07T18:20:17.601Z,12.30
2019-06-07T18:25:22.547Z,13.32
2019-06-07T18:30:27.565Z,20.35
2019-06-07T18:35:32.519Z,11.35
2019-06-07T18:40:37.565Z,9.83
2019-06-07T18:45:42.582Z,9.60
2019-06-07T18:50:48.630Z,12.37
2019-06-07T18:55:54.044Z,8.35
2019-06-07T19:00:59.159Z,10.60
2019-06-07T19:06:04.302Z,10.53
2019-06-07T19:11:09.410Z,11.78
2019-06-07T19:16:14.427Z,13.43
2019-06-07T19:21:19.506Z,14.00
2019-06-07T19:26:24.484Z,11.45
2019-06-07T19:31:29.597Z,8.90
2019-06-07T19:36:47.964Z,13.98
2019-06-07T19:41:41.422Z,9.08
2019-06-07T19:46:46.407Z,12.65
2019-06-07T19:51:52.768Z,14.70
2019-06-07T19:56:57.779Z,13.10
2019-06-07T20:02:04.073Z,12.45
2019-06-07T20:07:09.385Z,12.55
2019-06-07T20:12:14.372Z,12.23
2019-06-07T20:17:19.410Z,10.18
2019-06-07T20:22:24.526Z,12.43
2019-06-07T20:27:29.571Z,16.40
2019-06-07T20:32:34.680Z,13.13
2019-06-07T20:37:39.701Z,9.93
2019-06-07T20:42:44.733Z,14.30
2019-06-07T20:47:49.855Z,15.90
2019-06-07T20:52:54.806Z,14.50
2019-06-07T20:58:00.822Z,14.07
2019-06-07T21:03:07.433Z,14.93
2019-06-07T21:08:13.188Z,13.00
2019-06-07T21:13:18.321Z,11.93
2019-06-07T21:18:23.275Z,15.67
2019-06-07T21:23:28.251Z,12.57
2019-06-07T21:28:33.359Z,15.47
2019-06-07T21:33:38.342Z,12.37
2019-06-07T21:38:44.390Z,14.73
2019-06-07T21:43:49.338Z,15.00
2019-06-07T21:48:54.287Z,22.67
2019-06-07T21:53:59.270Z,15.57
2019-06-07T21:59:05.067Z,16.30
2019-06-07T22:04:11.639Z,18.70
2019-06-07T22:09:16.978Z,21.90
2019-06-07T22:14:22.100Z,16.83
2019-06-07T22:19:27.155Z,17.03
2019-06-07T22:24:32.139Z,13.30
2019-06-07T22:29:37.169Z,14.20
2019-06-07T22:34:42.202Z,21.90
2019-06-07T22:39:47.240Z,17.27
2019-06-07T22:44:52.294Z,15.50
2019-06-07T22:49:57.311Z,16.77
2019-06-07T22:55:02.343Z,16.13
2019-06-07T23:00:10.419Z,13.57
2019-06-07T23:05:14.787Z,23.37
2019-06-07T23:10:20.157Z,19.20
2019-06-07T23:15:25.218Z,19.13
2019-06-07T23:20:30.287Z,21.37
2019-06-07T23:25:35.324Z,20.83
2019-06-07T23:30:40.329Z,18.03
2019-06-07T23:35:45.309Z,24.47
2019-06-07T23:40:50.318Z,17.57
2019-06-07T23:45:55.336Z,20.50
2019-06-07T23:51:00.409Z,12.27
2019-06-07T23:56:05.607Z,21.83
